sensor_id;sensor_type;location;lat;lon;timestamp;pressure;altitude;pressure_sealevel;temperature;humidity
49342;BME280;35210;41.606;-87.602;2024-02-14T00:01:04;99796.34;;;5.84;46.18
49342;BME280;35210;41.606;-87.602;2024-02-14T00:03:38;99814.78;;;5.82;46.42
49342;BME280;35210;41.606;-87.602;2024-02-14T00:06:07;99818.28;;;5.99;46.13
49342;BME280;35210;41.606;-87.602;2024-02-14T00:08:38;99819.16;;;5.99;45.94
49342;BME280;35210;41.606;-87.602;2024-02-14T00:11:07;99839.44;;;5.96;45.90
49342;BME280;35210;41.606;-87.602;2024-02-14T00:13:36;99845.88;;;5.90;45.98
49342;BME280;35210;41.606;-87.602;2024-02-14T00:16:08;99838.97;;;5.87;46.38
49342;BME280;35210;41.606;-87.602;2024-02-14T00:18:38;99841.59;;;5.87;45.50
49342;BME280;35210;41.606;-87.602;2024-02-14T00:21:10;99844.22;;;5.87;46.17
49342;BME280;35210;41.606;-87.602;2024-02-14T00:23:42;99848.84;;;5.82;46.35
49342;BME280;35210;41.606;-87.602;2024-02-14T00:26:11;99847.16;;;5.81;46.82
49342;BME280;35210;41.606;-87.602;2024-02-14T00:28:40;99847.00;;;5.84;46.07
49342;BME280;35210;41.606;-87.602;2024-02-14T00:31:11;99859.31;;;5.82;46.05
49342;BME280;35210;41.606;-87.602;2024-02-14T00:33:42;99865.25;;;5.86;46.64
49342;BME280;35210;41.606;-87.602;2024-02-14T00:36:13;99866.94;;;5.87;46.24
49342;BME280;35210;41.606;-87.602;2024-02-14T00:38:43;99872.91;;;5.90;46.86
49342;BME280;35210;41.606;-87.602;2024-02-14T00:41:12;99877.06;;;5.94;46.38
49342;BME280;35210;41.606;-87.602;2024-02-14T00:43:41;99876.88;;;5.98;46.81
49342;BME280;35210;41.606;-87.602;2024-02-14T00:46:16;99879.19;;;6.04;46.87
49342;BME280;35210;41.606;-87.602;2024-02-14T00:48:51;99878.88;;;6.10;46.67
49342;BME280;35210;41.606;-87.602;2024-02-14T00:51:24;99883.22;;;6.11;46.73
49342;BME280;35210;41.606;-87.602;2024-02-14T00:53:53;99888.22;;;6.15;46.63
49342;BME280;35210;41.606;-87.602;2024-02-14T00:56:22;99892.53;;;6.16;45.89
49342;BME280;35210;41.606;-87.602;2024-02-14T00:58:51;99890.75;;;6.17;46.16
49342;BME280;35210;41.606;-87.602;2024-02-14T01:01:22;99894.16;;;6.19;46.11
49342;BME280;35210;41.606;-87.602;2024-02-14T01:03:56;99897.63;;;6.19;46.29
49342;BME280;35210;41.606;-87.602;2024-02-14T01:06:26;99910.50;;;6.24;46.67
49342;BME280;35210;41.606;-87.602;2024-02-14T01:08:59;99902.78;;;6.21;47.04
49342;BME280;35210;41.606;-87.602;2024-02-14T01:11:33;99908.19;;;6.18;46.66
49342;BME280;35210;41.606;-87.602;2024-02-14T01:14:06;99909.88;;;6.19;46.95
49342;BME280;35210;41.606;-87.602;2024-02-14T01:16:43;99912.50;;;6.19;46.60
49342;BME280;35210;41.606;-87.602;2024-02-14T01:19:14;99910.97;;;6.15;47.02
49342;BME280;35210;41.606;-87.602;2024-02-14T01:21:45;99905.78;;;6.13;47.04
49342;BME280;35210;41.606;-87.602;2024-02-14T01:24:22;99911.19;;;6.10;47.13
49342;BME280;35210;41.606;-87.602;2024-02-14T01:26:54;99913.06;;;6.08;47.40
49342;BME280;35210;41.606;-87.602;2024-02-14T01:29:25;99912.19;;;6.08;47.41
49342;BME280;35210;41.606;-87.602;2024-02-14T01:31:56;99905.25;;;6.07;47.35
49342;BME280;35210;41.606;-87.602;2024-02-14T01:34:31;99904.50;;;6.05;47.51
49342;BME280;35210;41.606;-87.602;2024-02-14T01:37:05;99904.50;;;6.05;47.32
49342;BME280;35210;41.606;-87.602;2024-02-14T01:39:36;99902.88;;;6.02;47.55
49342;BME280;35210;41.606;-87.602;2024-02-14T01:42:07;99898.63;;;6.00;47.77
49342;BME280;35210;41.606;-87.602;2024-02-14T01:44:36;99902.34;;;5.96;48.04
49342;BME280;35210;41.606;-87.602;2024-02-14T01:47:07;99913.00;;;5.92;48.46
49342;BME280;35210;41.606;-87.602;2024-02-14T01:49:42;99905.34;;;5.88;48.99
49342;BME280;35210;41.606;-87.602;2024-02-14T01:52:14;99912.59;;;5.83;49.92
49342;BME280;35210;41.606;-87.602;2024-02-14T01:54:45;99907.41;;;5.81;49.45
49342;BME280;35210;41.606;-87.602;2024-02-14T01:57:18;99911.03;;;5.79;49.89
49342;BME280;35210;41.606;-87.602;2024-02-14T01:59:52;99913.88;;;5.74;50.10
49342;BME280;35210;41.606;-87.602;2024-02-14T02:02:25;99916.59;;;5.73;50.08
49342;BME280;35210;41.606;-87.602;2024-02-14T02:04:56;99920.19;;;5.70;49.78
49342;BME280;35210;41.606;-87.602;2024-02-14T02:07:26;99929.13;;;5.66;49.98
49342;BME280;35210;41.606;-87.602;2024-02-14T02:09:56;99927.59;;;5.62;49.94
49342;BME280;35210;41.606;-87.602;2024-02-14T02:12:27;99927.75;;;5.59;49.46
49342;BME280;35210;41.606;-87.602;2024-02-14T02:14:56;99926.03;;;5.58;50.05
49342;BME280;35210;41.606;-87.602;2024-02-14T02:17:30;99925.25;;;5.56;49.79
49342;BME280;35210;41.606;-87.602;2024-02-14T02:20:02;99931.50;;;5.53;50.09
49342;BME280;35210;41.606;-87.602;2024-02-14T02:22:46;99929.88;;;5.51;49.96
49342;BME280;35210;41.606;-87.602;2024-02-14T02:25:16;99925.56;;;5.50;50.05
49342;BME280;35210;41.606;-87.602;2024-02-14T02:27:53;99930.09;;;5.46;49.50
49342;BME280;35210;41.606;-87.602;2024-02-14T02:30:24;99934.50;;;5.46;50.04
49342;BME280;35210;41.606;-87.602;2024-02-14T02:32:55;99938.03;;;5.45;49.77
49342;BME280;35210;41.606;-87.602;2024-02-14T02:35:26;99938.19;;;5.42;49.64
49342;BME280;35210;41.606;-87.602;2024-02-14T02:37:58;99936.63;;;5.38;50.04
49342;BME280;35210;41.606;-87.602;2024-02-14T02:40:27;99933.22;;;5.36;50.00
49342;BME280;35210;41.606;-87.602;2024-02-14T02:42:58;99941.22;;;5.33;49.95
49342;BME280;35210;41.606;-87.602;2024-02-14T02:45:27;99950.16;;;5.28;49.99
49342;BME280;35210;41.606;-87.602;2024-02-14T02:47:57;99949.53;;;5.23;50.43
49342;BME280;35210;41.606;-87.602;2024-02-14T02:50:28;99946.31;;;5.18;50.17
49342;BME280;35210;41.606;-87.602;2024-02-14T02:53:00;99949.97;;;5.14;50.48
49342;BME280;35210;41.606;-87.602;2024-02-14T02:55:30;99942.13;;;5.14;50.41
49342;BME280;35210;41.606;-87.602;2024-02-14T02:57:59;99948.28;;;5.13;50.08
49342;BME280;35210;41.606;-87.602;2024-02-14T03:00:28;99947.56;;;5.10;50.50
49342;BME280;35210;41.606;-87.602;2024-02-14T03:02:59;99943.41;;;5.06;50.92
49342;BME280;35210;41.606;-87.602;2024-02-14T03:05:29;99947.00;;;5.03;50.65
49342;BME280;35210;41.606;-87.602;2024-02-14T03:08:02;99944.66;;;4.97;51.53
49342;BME280;35210;41.606;-87.602;2024-02-14T03:10:32;99947.44;;;4.94;51.87
49342;BME280;35210;41.606;-87.602;2024-02-14T03:13:01;99942.97;;;4.96;51.54
49342;BME280;35210;41.606;-87.602;2024-02-14T03:15:30;99939.84;;;4.88;51.67
49342;BME280;35210;41.606;-87.602;2024-02-14T03:18:03;99944.38;;;4.84;51.43
49342;BME280;35210;41.606;-87.602;2024-02-14T03:20:36;99947.97;;;4.82;52.21
49342;BME280;35210;41.606;-87.602;2024-02-14T03:23:07;99943.66;;;4.81;53.44
49342;BME280;35210;41.606;-87.602;2024-02-14T03:25:41;99943.16;;;4.73;54.06
49342;BME280;35210;41.606;-87.602;2024-02-14T03:28:12;99941.59;;;4.69;54.10
49342;BME280;35210;41.606;-87.602;2024-02-14T03:30:45;99942.59;;;4.66;54.16
49342;BME280;35210;41.606;-87.602;2024-02-14T03:33:15;99938.47;;;4.60;54.25
49342;BME280;35210;41.606;-87.602;2024-02-14T03:35:44;99936.91;;;4.56;53.40
49342;BME280;35210;41.606;-87.602;2024-02-14T03:38:25;99941.38;;;4.54;53.71
49342;BME280;35210;41.606;-87.602;2024-02-14T03:40:56;99946.66;;;4.53;53.80
49342;BME280;35210;41.606;-87.602;2024-02-14T03:43:24;99945.03;;;4.50;53.32
49342;BME280;35210;41.606;-87.602;2024-02-14T03:45:55;99953.00;;;4.47;53.91
49342;BME280;35210;41.606;-87.602;2024-02-14T03:48:24;99953.16;;;4.44;53.17
49342;BME280;35210;41.606;-87.602;2024-02-14T03:50:53;99950.75;;;4.40;53.99
49342;BME280;35210;41.606;-87.602;2024-02-14T03:53:24;99941.28;;;4.37;54.14
49342;BME280;35210;41.606;-87.602;2024-02-14T03:55:54;99937.75;;;4.38;53.48
49342;BME280;35210;41.606;-87.602;2024-02-14T03:58:23;99941.47;;;4.33;53.48
49342;BME280;35210;41.606;-87.602;2024-02-14T04:00:54;99947.63;;;4.32;53.98
49342;BME280;35210;41.606;-87.602;2024-02-14T04:03:23;99950.31;;;4.30;53.63
49342;BME280;35210;41.606;-87.602;2024-02-14T04:05:58;99946.91;;;4.28;54.19
49342;BME280;35210;41.606;-87.602;2024-02-14T04:08:29;99945.22;;;4.27;54.12
49342;BME280;35210;41.606;-87.602;2024-02-14T04:10:58;99946.13;;;4.26;53.47
49342;BME280;35210;41.606;-87.602;2024-02-14T04:13:27;99941.94;;;4.22;53.76
49342;BME280;35210;41.606;-87.602;2024-02-14T04:15:58;99949.06;;;4.18;53.94
49342;BME280;35210;41.606;-87.602;2024-02-14T04:18:28;99947.44;;;4.16;54.09
49342;BME280;35210;41.606;-87.602;2024-02-14T04:20:56;99948.47;;;4.12;53.88
49342;BME280;35210;41.606;-87.602;2024-02-14T04:23:25;99948.53;;;4.10;54.08
49342;BME280;35210;41.606;-87.602;2024-02-14T04:25:55;99937.38;;;4.07;54.94
49342;BME280;35210;41.606;-87.602;2024-02-14T04:28:25;99934.88;;;4.04;54.35
49342;BME280;35210;41.606;-87.602;2024-02-14T04:30:53;99932.41;;;4.01;54.64
49342;BME280;35210;41.606;-87.602;2024-02-14T04:33:22;99925.59;;;3.96;54.46
49342;BME280;35210;41.606;-87.602;2024-02-14T04:35:50;99920.63;;;3.90;55.35
49342;BME280;35210;41.606;-87.602;2024-02-14T04:38:19;99928.41;;;3.92;54.48
49342;BME280;35210;41.606;-87.602;2024-02-14T04:40:48;99928.66;;;3.86;55.05
49342;BME280;35210;41.606;-87.602;2024-02-14T04:43:18;99926.97;;;3.85;54.79
49342;BME280;35210;41.606;-87.602;2024-02-14T04:45:46;99924.41;;;3.83;54.75
49342;BME280;35210;41.606;-87.602;2024-02-14T04:48:14;99930.56;;;3.82;55.36
49342;BME280;35210;41.606;-87.602;2024-02-14T04:50:44;99924.53;;;3.80;55.00
49342;BME280;35210;41.606;-87.602;2024-02-14T04:53:12;99933.16;;;3.82;55.38
49342;BME280;35210;41.606;-87.602;2024-02-14T04:55:40;99931.59;;;3.78;55.22
49342;BME280;35210;41.606;-87.602;2024-02-14T04:58:08;99934.44;;;3.72;55.02
49342;BME280;35210;41.606;-87.602;2024-02-14T05:00:38;99942.56;;;3.66;55.87
49342;BME280;35210;41.606;-87.602;2024-02-14T05:03:06;99933.09;;;3.63;55.73
49342;BME280;35210;41.606;-87.602;2024-02-14T05:05:36;99934.91;;;3.61;55.79
49342;BME280;35210;41.606;-87.602;2024-02-14T05:08:05;99939.41;;;3.58;56.45
49342;BME280;35210;41.606;-87.602;2024-02-14T05:10:33;99935.22;;;3.54;56.06
49342;BME280;35210;41.606;-87.602;2024-02-14T05:13:01;99941.34;;;3.53;56.63
49342;BME280;35210;41.606;-87.602;2024-02-14T05:15:29;99939.66;;;3.52;56.36
49342;BME280;35210;41.606;-87.602;2024-02-14T05:17:59;99948.41;;;3.51;56.75
49342;BME280;35210;41.606;-87.602;2024-02-14T05:20:27;99952.03;;;3.47;56.66
49342;BME280;35210;41.606;-87.602;2024-02-14T05:22:55;99951.63;;;3.36;57.40
49342;BME280;35210;41.606;-87.602;2024-02-14T05:25:23;99955.31;;;3.30;57.36
49342;BME280;35210;41.606;-87.602;2024-02-14T05:27:53;99968.53;;;3.25;57.49
49342;BME280;35210;41.606;-87.602;2024-02-14T05:30:21;99965.94;;;3.25;57.92
49342;BME280;35210;41.606;-87.602;2024-02-14T05:32:51;99967.75;;;3.23;58.79
49342;BME280;35210;41.606;-87.602;2024-02-14T05:35:21;99970.38;;;3.23;58.46
49342;BME280;35210;41.606;-87.602;2024-02-14T05:37:49;99973.94;;;3.21;58.69
49342;BME280;35210;41.606;-87.602;2024-02-14T05:40:18;99976.59;;;3.19;58.84
49342;BME280;35210;41.606;-87.602;2024-02-14T05:42:46;99975.81;;;3.17;59.22
49342;BME280;35210;41.606;-87.602;2024-02-14T05:45:14;99978.38;;;3.19;58.79
49342;BME280;35210;41.606;-87.602;2024-02-14T05:47:43;99982.97;;;3.12;59.66
49342;BME280;35210;41.606;-87.602;2024-02-14T05:50:11;99981.38;;;3.08;59.53
49342;BME280;35210;41.606;-87.602;2024-02-14T05:52:41;99981.50;;;3.05;58.79
49342;BME280;35210;41.606;-87.602;2024-02-14T05:55:09;99993.75;;;3.03;59.23
49342;BME280;35210;41.606;-87.602;2024-02-14T05:57:37;99995.44;;;3.04;59.01
49342;BME280;35210;41.606;-87.602;2024-02-14T06:00:06;99995.56;;;3.01;59.10
49342;BME280;35210;41.606;-87.602;2024-02-14T06:02:36;99993.88;;;3.00;59.27
49342;BME280;35210;41.606;-87.602;2024-02-14T06:05:06;99986.19;;;2.97;58.67
49342;BME280;35210;41.606;-87.602;2024-02-14T06:07:35;99987.09;;;2.96;58.92
49342;BME280;35210;41.606;-87.602;2024-02-14T06:10:07;99996.66;;;2.95;58.72
49342;BME280;35210;41.606;-87.602;2024-02-14T06:12:35;99990.59;;;2.95;59.19
49342;BME280;35210;41.606;-87.602;2024-02-14T06:15:04;100006.31;;;2.93;58.96
49342;BME280;35210;41.606;-87.602;2024-02-14T06:17:33;99989.94;;;2.90;59.03
49342;BME280;35210;41.606;-87.602;2024-02-14T06:20:01;99995.31;;;2.85;59.82
49342;BME280;35210;41.606;-87.602;2024-02-14T06:22:33;99993.59;;;2.84;59.67
49342;BME280;35210;41.606;-87.602;2024-02-14T06:25:01;99990.19;;;2.82;59.71
49342;BME280;35210;41.606;-87.602;2024-02-14T06:27:32;99988.56;;;2.80;60.25
49342;BME280;35210;41.606;-87.602;2024-02-14T06:30:00;99994.69;;;2.79;59.64
49342;BME280;35210;41.606;-87.602;2024-02-14T06:32:28;99999.03;;;2.78;59.36
49342;BME280;35210;41.606;-87.602;2024-02-14T06:34:56;100006.06;;;2.76;59.30
49342;BME280;35210;41.606;-87.602;2024-02-14T06:37:25;100000.00;;;2.76;59.50
49342;BME280;35210;41.606;-87.602;2024-02-14T06:39:53;100005.31;;;2.73;59.80
49342;BME280;35210;41.606;-87.602;2024-02-14T06:42:21;100012.34;;;2.71;60.11
49342;BME280;35210;41.606;-87.602;2024-02-14T06:44:51;100006.28;;;2.70;60.04
49342;BME280;35210;41.606;-87.602;2024-02-14T06:47:19;100003.84;;;2.66;60.42
49342;BME280;35210;41.606;-87.602;2024-02-14T06:49:47;100007.31;;;2.66;59.95
49342;BME280;35210;41.606;-87.602;2024-02-14T06:52:15;100007.25;;;2.68;59.65
49342;BME280;35210;41.606;-87.602;2024-02-14T06:54:43;100010.03;;;2.63;60.37
49342;BME280;35210;41.606;-87.602;2024-02-14T06:57:11;100016.94;;;2.64;60.58
49342;BME280;35210;41.606;-87.602;2024-02-14T06:59:40;100016.09;;;2.63;60.80
49342;BME280;35210;41.606;-87.602;2024-02-14T07:02:10;100018.63;;;2.65;61.17
49342;BME280;35210;41.606;-87.602;2024-02-14T07:04:38;100018.00;;;2.58;61.25
49342;BME280;35210;41.606;-87.602;2024-02-14T07:07:08;100019.72;;;2.59;61.17
49342;BME280;35210;41.606;-87.602;2024-02-14T07:09:36;100017.94;;;2.60;60.45
49342;BME280;35210;41.606;-87.602;2024-02-14T07:12:05;100021.72;;;2.51;60.58
49342;BME280;35210;41.606;-87.602;2024-02-14T07:14:33;100020.03;;;2.50;60.65
49342;BME280;35210;41.606;-87.602;2024-02-14T07:17:02;100027.03;;;2.48;60.24
49342;BME280;35210;41.606;-87.602;2024-02-14T07:19:31;100034.97;;;2.45;61.11
49342;BME280;35210;41.606;-87.602;2024-02-14T07:21:59;100032.38;;;2.45;60.69
49342;BME280;35210;41.606;-87.602;2024-02-14T07:24:27;100023.59;;;2.48;61.32
49342;BME280;35210;41.606;-87.602;2024-02-14T07:26:55;100027.03;;;2.48;61.16
49342;BME280;35210;41.606;-87.602;2024-02-14T07:29:24;100028.75;;;2.49;60.60
49342;BME280;35210;41.606;-87.602;2024-02-14T07:31:52;100022.00;;;2.44;61.28
49342;BME280;35210;41.606;-87.602;2024-02-14T07:34:20;100023.94;;;2.37;62.80
49342;BME280;35210;41.606;-87.602;2024-02-14T07:36:50;100032.13;;;2.26;63.42
49342;BME280;35210;41.606;-87.602;2024-02-14T07:39:18;100038.44;;;2.21;64.21
49342;BME280;35210;41.606;-87.602;2024-02-14T07:41:46;100029.72;;;2.22;64.41
49342;BME280;35210;41.606;-87.602;2024-02-14T07:44:14;100038.31;;;2.24;65.03
49342;BME280;35210;41.606;-87.602;2024-02-14T07:46:42;100030.56;;;2.22;65.15
49342;BME280;35210;41.606;-87.602;2024-02-14T07:49:10;100040.13;;;2.22;64.76
49342;BME280;35210;41.606;-87.602;2024-02-14T07:51:38;100043.50;;;2.24;65.03
49342;BME280;35210;41.606;-87.602;2024-02-14T07:54:09;100046.06;;;2.25;65.53
49342;BME280;35210;41.606;-87.602;2024-02-14T07:56:37;100048.72;;;2.24;65.45
49342;BME280;35210;41.606;-87.602;2024-02-14T07:59:05;100060.78;;;2.26;65.29
49342;BME280;35210;41.606;-87.602;2024-02-14T08:01:33;100065.25;;;2.23;64.84
49342;BME280;35210;41.606;-87.602;2024-02-14T08:04:01;100066.97;;;2.24;64.47
49342;BME280;35210;41.606;-87.602;2024-02-14T08:06:30;100069.75;;;2.19;63.01
49342;BME280;35210;41.606;-87.602;2024-02-14T08:08:58;100073.41;;;2.14;63.17
49342;BME280;35210;41.606;-87.602;2024-02-14T08:11:30;100073.41;;;2.14;63.28
49342;BME280;35210;41.606;-87.602;2024-02-14T08:13:58;100073.44;;;2.12;63.82
49342;BME280;35210;41.606;-87.602;2024-02-14T08:16:26;100072.56;;;2.13;63.59
49342;BME280;35210;41.606;-87.602;2024-02-14T08:22:16;100070.00;;;2.12;63.82
49342;BME280;35210;41.606;-87.602;2024-02-14T08:24:44;100072.59;;;2.12;63.37
49342;BME280;35210;41.606;-87.602;2024-02-14T08:27:14;100074.31;;;2.13;63.45
49342;BME280;35210;41.606;-87.602;2024-02-14T08:29:42;100071.59;;;2.16;62.69
49342;BME280;35210;41.606;-87.602;2024-02-14T08:32:10;100057.56;;;2.20;62.64
49342;BME280;35210;41.606;-87.602;2024-02-14T08:34:38;100056.78;;;2.18;63.18
49342;BME280;35210;41.606;-87.602;2024-02-14T08:37:06;100066.34;;;2.17;62.71
49342;BME280;35210;41.606;-87.602;2024-02-14T08:39:34;100064.69;;;2.15;63.39
49342;BME280;35210;41.606;-87.602;2024-02-14T08:42:03;100058.69;;;2.13;64.05
49342;BME280;35210;41.606;-87.602;2024-02-14T08:44:36;100059.47;;;2.15;64.52
49342;BME280;35210;41.606;-87.602;2024-02-14T08:47:06;100063.84;;;2.14;64.71
49342;BME280;35210;41.606;-87.602;2024-02-14T08:49:35;100069.91;;;2.15;64.66
49342;BME280;35210;41.606;-87.602;2024-02-14T08:52:03;100054.25;;;2.15;64.74
49342;BME280;35210;41.606;-87.602;2024-02-14T08:54:32;100065.69;;;2.11;64.59
49342;BME280;35210;41.606;-87.602;2024-02-14T08:57:00;100064.09;;;2.07;65.42
49342;BME280;35210;41.606;-87.602;2024-02-14T08:59:28;100067.63;;;2.04;65.22
49342;BME280;35210;41.606;-87.602;2024-02-14T09:01:58;100062.44;;;2.04;65.40
49342;BME280;35210;41.606;-87.602;2024-02-14T09:04:26;100066.78;;;2.04;65.81
49342;BME280;35210;41.606;-87.602;2024-02-14T09:06:55;100062.56;;;2.00;65.63
49342;BME280;35210;41.606;-87.602;2024-02-14T09:09:23;100068.78;;;1.95;66.24
49342;BME280;35210;41.606;-87.602;2024-02-14T09:11:51;100075.75;;;1.95;66.34
49342;BME280;35210;41.606;-87.602;2024-02-14T09:14:19;100087.00;;;1.95;66.15
49342;BME280;35210;41.606;-87.602;2024-02-14T09:16:49;100079.28;;;1.92;66.18
49342;BME280;35210;41.606;-87.602;2024-02-14T09:19:18;100077.69;;;1.88;67.00
49342;BME280;35210;41.606;-87.602;2024-02-14T09:21:47;100075.13;;;1.87;67.01
49342;BME280;35210;41.606;-87.602;2024-02-14T09:24:15;100076.94;;;1.85;66.95
49342;BME280;35210;41.606;-87.602;2024-02-14T09:26:43;100074.47;;;1.80;67.00
49342;BME280;35210;41.606;-87.602;2024-02-14T09:29:11;100078.78;;;1.81;66.91
49342;BME280;35210;41.606;-87.602;2024-02-14T09:31:41;100082.28;;;1.80;66.71
49342;BME280;35210;41.606;-87.602;2024-02-14T09:34:13;100077.97;;;1.79;66.38
49342;BME280;35210;41.606;-87.602;2024-02-14T09:36:47;100082.41;;;1.76;66.86
49342;BME280;35210;41.606;-87.602;2024-02-14T09:39:17;100088.66;;;1.70;67.77
49342;BME280;35210;41.606;-87.602;2024-02-14T09:41:51;100088.66;;;1.70;67.59
49342;BME280;35210;41.606;-87.602;2024-02-14T09:44:20;100093.06;;;1.68;66.98
49342;BME280;35210;41.606;-87.602;2024-02-14T09:46:50;100095.75;;;1.65;67.16
49342;BME280;35210;41.606;-87.602;2024-02-14T09:49:19;100099.25;;;1.64;66.76
49342;BME280;35210;41.606;-87.602;2024-02-14T09:51:49;100097.69;;;1.58;67.21
49342;BME280;35210;41.606;-87.602;2024-02-14T09:54:18;100093.53;;;1.53;66.71
49342;BME280;35210;41.606;-87.602;2024-02-14T09:56:48;100103.25;;;1.48;66.92
49342;BME280;35210;41.606;-87.602;2024-02-14T09:59:20;100100.69;;;1.46;66.84
49342;BME280;35210;41.606;-87.602;2024-02-14T10:01:49;100105.88;;;1.46;66.56
49342;BME280;35210;41.606;-87.602;2024-02-14T10:04:18;100121.63;;;1.42;66.66
49342;BME280;35210;41.606;-87.602;2024-02-14T10:06:50;100117.50;;;1.35;66.28
49342;BME280;35210;41.606;-87.602;2024-02-14T10:09:21;100115.63;;;1.40;66.31
49342;BME280;35210;41.606;-87.602;2024-02-14T10:11:52;100113.75;;;1.45;65.87
49342;BME280;35210;41.606;-87.602;2024-02-14T10:14:23;100115.44;;;1.46;65.54
49342;BME280;35210;41.606;-87.602;2024-02-14T10:16:51;100124.25;;;1.42;66.22
49342;BME280;35210;41.606;-87.602;2024-02-14T10:19:19;100120.06;;;1.36;66.64
49342;BME280;35210;41.606;-87.602;2024-02-14T10:21:57;100127.91;;;1.35;66.72
49342;BME280;35210;41.606;-87.602;2024-02-14T10:24:25;100138.38;;;1.33;67.11
49342;BME280;35210;41.606;-87.602;2024-02-14T10:26:54;100140.88;;;1.36;66.11
49342;BME280;35210;41.606;-87.602;2024-02-14T10:29:23;100140.88;;;1.36;66.26
49342;BME280;35210;41.606;-87.602;2024-02-14T10:31:52;100146.94;;;1.37;65.59
49342;BME280;35210;41.606;-87.602;2024-02-14T10:34:24;100149.63;;;1.34;66.22
49342;BME280;35210;41.606;-87.602;2024-02-14T10:36:56;100154.81;;;1.34;67.50
49342;BME280;35210;41.606;-87.602;2024-02-14T10:39:26;100149.72;;;1.30;67.61
49342;BME280;35210;41.606;-87.602;2024-02-14T10:41:54;100155.72;;;1.33;67.30
49342;BME280;35210;41.606;-87.602;2024-02-14T10:44:22;100166.13;;;1.33;67.35
49342;BME280;35210;41.606;-87.602;2024-02-14T10:46:53;100161.91;;;1.28;68.03
49342;BME280;35210;41.606;-87.602;2024-02-14T10:49:26;100171.41;;;1.29;67.94
49342;BME280;35210;41.606;-87.602;2024-02-14T10:51:58;100171.66;;;1.20;69.59
49342;BME280;35210;41.606;-87.602;2024-02-14T10:54:30;100164.69;;;1.22;69.67
49342;BME280;35210;41.606;-87.602;2024-02-14T10:57:05;100178.56;;;1.21;68.94
49342;BME280;35210;41.606;-87.602;2024-02-14T10:59:40;100175.97;;;1.21;69.45
49342;BME280;35210;41.606;-87.602;2024-02-14T11:02:10;100178.56;;;1.21;69.63
49342;BME280;35210;41.606;-87.602;2024-02-14T11:04:38;100186.41;;;1.20;69.07
49342;BME280;35210;41.606;-87.602;2024-02-14T11:07:10;100176.94;;;1.17;69.56
49342;BME280;35210;41.606;-87.602;2024-02-14T11:09:39;100186.47;;;1.18;69.97
49342;BME280;35210;41.606;-87.602;2024-02-14T11:12:08;100187.44;;;1.14;70.05
49342;BME280;35210;41.606;-87.602;2024-02-14T11:14:37;100192.66;;;1.14;70.33
49342;BME280;35210;41.606;-87.602;2024-02-14T11:17:10;100190.09;;;1.13;70.37
49342;BME280;35210;41.606;-87.602;2024-02-14T11:19:38;100199.72;;;1.09;70.79
49342;BME280;35210;41.606;-87.602;2024-02-14T11:22:18;100194.59;;;1.06;71.08
49342;BME280;35210;41.606;-87.602;2024-02-14T11:24:47;100201.56;;;1.04;70.86
49342;BME280;35210;41.606;-87.602;2024-02-14T11:27:18;100199.06;;;1.01;70.75
49342;BME280;35210;41.606;-87.602;2024-02-14T11:29:53;100195.72;;;0.96;70.58
49342;BME280;35210;41.606;-87.602;2024-02-14T11:32:22;100199.06;;;1.01;70.41
49342;BME280;35210;41.606;-87.602;2024-02-14T11:34:54;100193.03;;;0.99;69.64
49342;BME280;35210;41.606;-87.602;2024-02-14T11:37:29;100200.03;;;0.97;69.74
49342;BME280;35210;41.606;-87.602;2024-02-14T11:39:58;100206.13;;;0.96;70.05
49342;BME280;35210;41.606;-87.602;2024-02-14T11:42:26;100200.09;;;0.94;69.95
49342;BME280;35210;41.606;-87.602;2024-02-14T11:44:55;100215.78;;;0.91;70.44
49342;BME280;35210;41.606;-87.602;2024-02-14T11:47:23;100219.34;;;0.87;70.33
49342;BME280;35210;41.606;-87.602;2024-02-14T11:49:52;100214.16;;;0.87;70.84
49342;BME280;35210;41.606;-87.602;2024-02-14T11:52:20;100205.47;;;0.88;70.28
49342;BME280;35210;41.606;-87.602;2024-02-14T11:54:49;100207.41;;;0.80;70.57
49342;BME280;35210;41.606;-87.602;2024-02-14T11:57:18;100219.47;;;0.82;70.79
49342;BME280;35210;41.606;-87.602;2024-02-14T11:59:48;100219.50;;;0.81;70.57
49342;BME280;35210;41.606;-87.602;2024-02-14T12:02:19;100221.28;;;0.79;70.39
49342;BME280;35210;41.606;-87.602;2024-02-14T12:04:47;100222.97;;;0.81;70.28
49342;BME280;35210;41.606;-87.602;2024-02-14T12:07:17;100229.13;;;0.77;70.36
49342;BME280;35210;41.606;-87.602;2024-02-14T12:09:45;100223.06;;;0.77;70.19
49342;BME280;35210;41.606;-87.602;2024-02-14T12:12:15;100235.25;;;0.75;70.59
49342;BME280;35210;41.606;-87.602;2024-02-14T12:14:43;100233.56;;;0.74;70.64
49342;BME280;35210;41.606;-87.602;2024-02-14T12:17:16;100236.31;;;0.68;70.88
49342;BME280;35210;41.606;-87.602;2024-02-14T12:19:46;100245.19;;;0.59;70.60
49342;BME280;35210;41.606;-87.602;2024-02-14T12:22:16;100245.97;;;0.62;70.50
49342;BME280;35210;41.606;-87.602;2024-02-14T12:24:45;100247.69;;;0.63;70.72
49342;BME280;35210;41.606;-87.602;2024-02-14T12:27:17;100249.47;;;0.61;70.69
49342;BME280;35210;41.606;-87.602;2024-02-14T12:29:46;100252.94;;;0.60;70.78
49342;BME280;35210;41.606;-87.602;2024-02-14T12:32:16;100251.16;;;0.62;70.30
49342;BME280;35210;41.606;-87.602;2024-02-14T12:34:44;100255.44;;;0.65;70.36
49342;BME280;35210;41.606;-87.602;2024-02-14T12:37:15;100256.38;;;0.62;70.16
49342;BME280;35210;41.606;-87.602;2024-02-14T12:39:43;100258.97;;;0.62;69.82
49342;BME280;35210;41.606;-87.602;2024-02-14T12:42:11;100258.97;;;0.62;69.83
49342;BME280;35210;41.606;-87.602;2024-02-14T12:44:41;100268.47;;;0.63;69.88
49342;BME280;35210;41.606;-87.602;2024-02-14T12:47:09;100271.97;;;0.62;70.42
49342;BME280;35210;41.606;-87.602;2024-02-14T12:49:37;100271.97;;;0.62;70.90
49342;BME280;35210;41.606;-87.602;2024-02-14T12:52:05;100261.56;;;0.62;71.10
49342;BME280;35210;41.606;-87.602;2024-02-14T12:54:33;100263.34;;;0.60;71.55
49342;BME280;35210;41.606;-87.602;2024-02-14T12:57:01;100280.72;;;0.58;71.14
49342;BME280;35210;41.606;-87.602;2024-02-14T12:59:30;100284.31;;;0.53;71.27
49342;BME280;35210;41.606;-87.602;2024-02-14T13:02:00;100287.75;;;0.53;71.27